createdAt,value
2019-02-05T00:46:18.111Z,0.70
2019-02-05T00:48:50.013Z,0.80
2019-02-05T00:51:21.253Z,0.80
2019-02-05T00:53:52.391Z,0.80
2019-02-05T00:56:23.653Z,0.70
2019-02-05T00:58:54.840Z,0.70
2019-02-05T01:01:32.305Z,0.70
2019-02-05T01:04:03.493Z,0.80
2019-02-05T01:06:34.864Z,0.80
2019-02-05T01:09:07.235Z,0.80
2019-02-05T01:11:38.474Z,0.80
2019-02-05T01:14:09.660Z,0.80
2019-02-05T01:16:44.089Z,0.80
2019-02-05T01:19:21.341Z,0.80
2019-02-05T01:21:52.574Z,0.70
2019-02-05T01:24:24.100Z,0.70
2019-02-05T01:26:55.321Z,0.70
2019-02-05T01:29:26.496Z,0.70
2019-02-05T01:35:05.411Z,0.70
2019-02-05T01:37:43.114Z,0.70
2019-02-05T01:40:17.982Z,0.70
2019-02-05T01:42:50.980Z,0.70
2019-02-05T01:45:24.480Z,0.70
2019-02-05T01:47:58.286Z,0.70
2019-02-05T01:50:32.012Z,0.70
2019-02-05T01:53:03.549Z,0.70
2019-02-05T01:55:38.850Z,0.70
2019-02-05T01:58:10.070Z,0.70
2019-02-05T02:21:48.425Z,0.80
2019-02-05T02:24:19.631Z,0.80
2019-02-05T02:26:52.363Z,0.80
2019-02-05T02:29:23.810Z,0.80
2019-02-05T02:31:55.043Z,0.60
2019-02-05T02:34:29.236Z,0.50
2019-02-05T02:37:00.490Z,0.50
2019-02-05T02:39:32.680Z,0.60
2019-02-05T02:42:03.894Z,0.60
2019-02-05T02:44:35.091Z,0.60
2019-02-05T02:47:08.410Z,0.60
2019-02-05T03:03:28.791Z,0.70
2019-02-05T03:06:01.495Z,0.70
2019-02-05T03:08:32.733Z,0.70
2019-02-05T03:11:04.965Z,0.70
2019-02-05T03:13:36.731Z,0.70
2019-02-05T03:16:16.648Z,0.70
2019-02-05T03:18:47.937Z,0.70
2019-02-05T03:21:19.157Z,0.70
2019-02-05T03:23:50.402Z,0.80
2019-02-05T03:26:21.610Z,0.80
2019-02-05T03:28:52.861Z,0.80
2019-02-05T03:31:26.522Z,0.80
2019-02-05T03:33:57.687Z,0.80
2019-02-05T03:36:28.823Z,0.70
2019-02-05T03:39:01.533Z,0.70
2019-02-05T03:41:33.730Z,0.70
2019-02-05T03:44:06.541Z,0.70
2019-02-05T03:46:37.732Z,0.60
2019-02-05T03:49:08.981Z,0.50
2019-02-05T03:51:43.293Z,0.50
2019-02-05T03:54:29.940Z,0.40
2019-02-05T03:57:14.384Z,0.50
2019-02-05T03:59:57.511Z,0.50
2019-02-05T04:02:46.830Z,0.50
2019-02-05T04:05:33.655Z,0.60
2019-02-05T04:08:26.034Z,0.60
2019-02-05T04:11:30.885Z,0.50
2019-02-05T04:24:55.455Z,0.60
2019-02-05T04:27:44.123Z,0.60
2019-02-05T04:30:38.107Z,0.60
2019-02-05T04:33:20.722Z,0.70
2019-02-05T04:36:01.181Z,0.60
2019-02-05T04:39:03.200Z,0.60
2019-02-05T04:41:37.517Z,0.60
2019-02-05T04:44:20.514Z,0.60
2019-02-05T04:46:57.824Z,0.60
2019-02-05T04:49:35.040Z,0.70
2019-02-05T04:52:14.953Z,0.70
2019-02-05T04:55:04.179Z,0.60
2019-02-05T04:57:59.167Z,0.70
2019-02-05T05:00:44.769Z,0.70
2019-02-05T05:03:20.975Z,0.70
2019-02-05T05:06:00.826Z,0.70
2019-02-05T05:08:53.359Z,0.60
2019-02-05T05:14:26.480Z,0.50
2019-02-05T05:16:57.687Z,0.60
2019-02-05T05:19:28.962Z,0.60
2019-02-05T05:22:00.154Z,0.60
2019-02-05T05:28:10.511Z,0.60
2019-02-05T05:30:43.273Z,0.60
2019-02-05T05:33:14.914Z,0.60
2019-02-05T05:35:46.122Z,0.60
2019-02-05T05:38:27.666Z,0.60
2019-02-05T05:40:58.965Z,0.50
2019-02-05T05:43:35.845Z,0.60
2019-02-05T05:46:07.030Z,0.60
2019-02-05T05:48:38.274Z,0.60
2019-02-05T05:51:09.527Z,0.60
2019-02-05T05:53:40.806Z,0.60
2019-02-05T05:56:11.965Z,0.60
2019-02-05T05:58:43.522Z,0.60
2019-02-05T06:01:14.754Z,0.60
2019-02-05T06:03:46.015Z,0.60
2019-02-05T06:06:18.160Z,0.60
2019-02-05T06:08:49.430Z,0.60
2019-02-05T06:11:21.892Z,0.60
2019-02-05T06:13:53.307Z,0.50
2019-02-05T06:16:24.462Z,0.60
2019-02-05T06:18:56.672Z,0.60
2019-02-05T06:21:27.871Z,0.50
2019-02-05T06:24:00.520Z,0.50
2019-02-05T06:26:34.212Z,0.60
2019-02-05T06:29:05.673Z,0.50
2019-02-05T06:31:36.940Z,0.50
2019-02-05T06:34:08.214Z,0.60
2019-02-05T06:36:39.420Z,0.60
2019-02-05T06:39:10.616Z,0.50
2019-02-05T06:41:43.904Z,0.50
2019-02-05T06:44:14.977Z,0.50
2019-02-05T06:46:49.996Z,0.50
2019-02-05T06:49:21.421Z,0.40
2019-02-05T06:51:52.634Z,0.50
2019-02-05T06:54:23.800Z,0.50
2019-02-05T06:56:55.010Z,0.50
2019-02-05T06:59:26.250Z,0.60
2019-02-05T07:01:58.997Z,0.60
2019-02-05T07:04:30.584Z,0.60
2019-02-05T07:07:01.793Z,0.70
2019-02-05T07:09:33.075Z,0.60
2019-02-05T07:12:04.385Z,0.60
2019-02-05T07:14:35.650Z,0.70
2019-02-05T07:17:06.975Z,0.60
2019-02-05T07:19:38.226Z,0.70
2019-02-05T07:22:09.471Z,0.70
2019-02-05T07:24:40.726Z,0.70
2019-02-05T07:27:13.505Z,0.80
2019-02-05T07:29:46.181Z,0.80
2019-02-05T07:32:17.376Z,0.80
2019-02-05T07:34:55.739Z,0.80
2019-02-05T07:37:26.981Z,0.80
2019-02-05T07:39:58.231Z,0.80
2019-02-05T07:42:29.579Z,0.90
2019-02-05T07:45:01.230Z,0.90
2019-02-05T07:47:32.428Z,1.00
2019-02-05T07:50:04.983Z,1.00
2019-02-05T07:52:36.225Z,1.00
2019-02-05T07:55:10.090Z,1.00
2019-02-05T07:57:41.312Z,1.10
2019-02-05T08:00:21.255Z,1.10
2019-02-05T08:02:52.472Z,1.00
2019-02-05T08:05:27.025Z,1.10
2019-02-05T08:07:58.320Z,1.10
2019-02-05T08:10:29.766Z,1.10
2019-02-05T08:13:05.905Z,1.10
2019-02-05T08:15:43.153Z,1.20
2019-02-05T08:18:15.188Z,1.20
2019-02-05T08:20:46.396Z,1.20
2019-02-05T08:23:18.726Z,1.20
2019-02-05T08:25:51.273Z,1.30
2019-02-05T08:28:22.523Z,1.40
2019-02-05T08:30:53.854Z,1.40
2019-02-05T08:33:25.086Z,1.50
2019-02-05T08:35:56.255Z,1.50
2019-02-05T08:38:27.850Z,1.40
2019-02-05T08:40:59.152Z,1.50
2019-02-05T08:43:30.946Z,1.60
2019-02-05T08:46:02.168Z,1.60
2019-02-05T08:48:33.353Z,1.60
2019-02-05T08:51:04.612Z,1.70
2019-02-05T08:53:35.995Z,1.70
2019-02-05T08:56:07.234Z,1.80
2019-02-05T08:58:38.370Z,1.70
2019-02-05T09:01:09.655Z,1.80
2019-02-05T09:03:40.855Z,1.80
2019-02-05T09:06:12.077Z,1.90
2019-02-05T09:08:43.286Z,1.90
2019-02-05T09:11:14.601Z,1.90
2019-02-05T09:13:45.790Z,2.00
2019-02-05T09:16:20.040Z,2.10
2019-02-05T09:18:52.851Z,2.10
2019-02-05T09:21:24.087Z,2.10
2019-02-05T09:23:55.222Z,2.00
2019-02-05T09:26:26.474Z,2.10
2019-02-05T09:28:57.616Z,2.10
2019-02-05T09:31:30.090Z,2.20
2019-02-05T09:34:01.704Z,2.20
2019-02-05T09:36:32.974Z,2.20
2019-02-05T09:39:06.526Z,2.20
2019-02-05T09:41:40.240Z,2.20
2019-02-05T09:44:11.557Z,2.30
2019-02-05T09:46:42.825Z,2.30
2019-02-05T09:49:13.933Z,2.40
2019-02-05T09:51:45.113Z,2.40
2019-02-05T09:54:16.299Z,2.40
2019-02-05T09:56:47.561Z,2.20
2019-02-05T09:59:18.697Z,2.10
2019-02-05T10:01:50.287Z,2.10
2019-02-05T10:04:21.506Z,2.20
2019-02-05T10:06:52.613Z,2.30
2019-02-05T10:09:24.056Z,2.20
2019-02-05T10:11:55.239Z,2.30
2019-02-05T10:14:29.094Z,2.30
2019-02-05T10:17:00.335Z,2.40
2019-02-05T10:19:32.575Z,2.40
2019-02-05T10:22:06.842Z,2.50
2019-02-05T10:24:38.036Z,2.50
2019-02-05T10:27:09.210Z,2.60
2019-02-05T10:29:42.172Z,2.50
2019-02-05T10:35:55.666Z,2.50
2019-02-05T10:38:26.902Z,2.70
2019-02-05T10:40:58.174Z,2.70
2019-02-05T10:43:29.785Z,2.70
2019-02-05T10:46:01.043Z,2.70
2019-02-05T10:48:33.191Z,2.60
2019-02-05T10:51:04.551Z,2.70
2019-02-05T10:53:35.730Z,2.70
2019-02-05T10:56:06.925Z,2.70
2019-02-05T10:58:38.217Z,2.50
2019-02-05T11:08:12.055Z,2.60
2019-02-05T12:07:15.747Z,2.90
2019-02-05T12:09:47.051Z,3.00
2019-02-05T12:12:18.313Z,2.90
2019-02-05T12:14:51.118Z,3.00
2019-02-05T12:17:22.385Z,3.00
2019-02-05T12:19:56.222Z,3.00
2019-02-05T12:22:27.480Z,3.00
2019-02-05T12:24:58.696Z,3.00
2019-02-05T12:27:29.926Z,3.10
2019-02-05T12:30:01.527Z,3.10
2019-02-05T12:32:34.310Z,3.10
2019-02-05T12:35:12.951Z,3.10
2019-02-05T12:37:50.101Z,3.00
2019-02-05T12:40:21.971Z,3.10
2019-02-05T12:42:53.224Z,3.20
2019-02-05T12:45:32.036Z,3.20
2019-02-05T12:48:03.306Z,3.30
2019-02-05T12:50:37.013Z,3.40
2019-02-05T12:53:08.575Z,3.40
2019-02-05T12:55:39.774Z,3.40
2019-02-05T12:58:11.044Z,3.30
2019-02-05T13:00:56.650Z,3.30
2019-02-05T13:03:20.345Z,3.30
2019-02-05T13:05:52.991Z,3.20
2019-02-05T13:08:24.253Z,3.30
2019-02-05T13:10:55.435Z,3.40
2019-02-05T13:13:42.746Z,3.40
2019-02-05T13:16:15.450Z,3.50
2019-02-05T13:18:46.693Z,3.50
2019-02-05T13:21:18.126Z,3.60
2019-02-05T13:23:49.474Z,3.60
2019-02-05T13:26:20.691Z,3.70
2019-02-05T13:28:51.953Z,3.70
2019-02-05T13:31:23.170Z,3.70
2019-02-05T13:33:54.412Z,3.70
2019-02-05T13:36:31.231Z,3.70
2019-02-05T13:39:03.484Z,3.60
2019-02-05T13:41:35.707Z,3.60
2019-02-05T13:46:46.685Z,3.50
2019-02-05T13:56:06.625Z,3.60
2019-02-05T13:58:39.392Z,3.50
2019-02-05T14:01:20.060Z,3.50
2019-02-05T14:03:46.370Z,3.40
2019-02-05T14:19:00.217Z,3.50
2019-02-05T14:21:32.512Z,3.40
2019-02-05T14:24:04.799Z,3.30
2019-02-05T14:26:35.941Z,3.40
2019-02-05T14:29:07.170Z,3.30
2019-02-05T14:31:39.834Z,3.30
2019-02-05T14:34:11.068Z,3.30
2019-02-05T14:36:42.262Z,3.10
2019-02-05T14:39:15.265Z,3.10
2019-02-05T14:41:46.407Z,3.00
2019-02-05T14:44:17.701Z,3.00
2019-02-05T14:46:48.930Z,2.90
2019-02-05T14:49:20.047Z,2.70
2019-02-05T14:51:51.619Z,2.60
2019-02-05T14:54:22.855Z,2.50
2019-02-05T14:56:54.054Z,2.50
2019-02-05T14:59:25.337Z,2.50
2019-02-05T15:01:56.550Z,2.50
2019-02-05T15:04:28.803Z,2.40
2019-02-05T15:06:59.991Z,2.30
2019-02-05T15:09:31.235Z,2.20
2019-02-05T15:12:02.430Z,2.10
2019-02-05T15:14:33.701Z,2.10
2019-02-05T15:17:06.356Z,2.00
2019-02-05T15:19:40.634Z,1.90
2019-02-05T15:22:18.009Z,1.80
2019-02-05T15:24:56.040Z,1.80
2019-02-05T15:27:30.675Z,1.80
2019-02-05T15:30:01.875Z,1.80
2019-02-05T15:32:52.245Z,1.70
2019-02-05T15:35:26.470Z,1.60
2019-02-05T15:37:57.635Z,1.50
2019-02-05T15:40:32.008Z,1.50
2019-02-05T15:43:03.313Z,1.40
2019-02-05T15:45:34.507Z,1.30
2019-02-05T15:48:05.763Z,1.20
2019-02-05T15:50:36.993Z,1.20
2019-02-05T15:53:08.303Z,1.10
2019-02-05T15:55:39.502Z,1.00
2019-02-05T15:58:10.818Z,1.00
2019-02-05T16:00:42.163Z,0.90
2019-02-05T16:03:13.463Z,0.90
2019-02-05T16:05:44.671Z,0.80
2019-02-05T16:08:20.049Z,0.80
2019-02-05T16:10:51.269Z,0.70
2019-02-05T16:13:22.480Z,0.60
2019-02-05T16:15:53.693Z,0.50
2019-02-05T16:18:24.926Z,0.50
2019-02-05T16:20:56.241Z,0.40
2019-02-05T16:23:36.051Z,0.30
2019-02-05T16:26:08.108Z,0.30
2019-02-05T16:28:42.181Z,0.20
2019-02-05T16:31:14.972Z,0.10
2019-02-05T16:33:47.537Z,0.10
2019-02-05T16:36:21.560Z,0.10
2019-02-05T16:38:52.786Z,-0.10
2019-02-05T16:41:24.613Z,0.00
2019-02-05T16:43:57.366Z,-0.20
2019-02-05T16:46:30.072Z,-0.10
2019-02-05T16:49:01.342Z,-0.10
2019-02-05T16:51:32.613Z,-0.20
2019-02-05T16:54:03.821Z,-0.20
2019-02-05T16:56:35.109Z,-0.20
2019-02-05T16:59:07.817Z,-0.20
2019-02-05T17:01:39.694Z,-0.30
2019-02-05T17:04:11.266Z,-0.30
2019-02-05T17:06:42.529Z,-0.30
2019-02-05T17:09:14.982Z,-0.30
2019-02-05T17:11:46.254Z,-0.30
2019-02-05T17:14:21.866Z,-0.30
2019-02-05T17:16:53.151Z,-0.40
2019-02-05T17:19:24.372Z,-0.40
2019-02-05T17:21:55.656Z,-0.40
2019-02-05T17:24:26.853Z,-0.40
2019-02-05T17:26:59.212Z,-0.50
2019-02-05T17:29:30.421Z,-0.50
2019-02-05T17:32:01.678Z,-0.50
2019-02-05T17:34:32.844Z,-0.50
2019-02-05T17:37:04.122Z,-0.50
2019-02-05T17:39:36.768Z,-0.60
2019-02-05T17:42:08.041Z,-0.70
2019-02-05T17:44:39.197Z,-0.60
2019-02-05T17:47:10.462Z,-0.70
2019-02-05T17:49:41.622Z,-0.70
2019-02-05T17:52:12.799Z,-0.70
2019-02-05T17:54:44.047Z,-0.80
2019-02-05T17:57:15.165Z,-0.70
2019-02-05T17:59:46.431Z,-0.80
2019-02-05T18:02:17.996Z,-0.80
2019-02-05T18:04:49.221Z,-0.80
2019-02-05T18:07:20.472Z,-0.80
2019-02-05T18:09:51.712Z,-0.80
2019-02-05T18:12:23.076Z,-0.80
2019-02-05T18:14:54.516Z,-0.80
2019-02-05T18:17:25.832Z,-0.80
2019-02-05T18:19:56.898Z,-0.90
2019-02-05T18:22:29.682Z,-0.90
2019-02-05T18:25:00.743Z,-0.90
2019-02-05T18:27:33.156Z,-0.90
2019-02-05T18:30:11.421Z,-0.90
2019-02-05T18:32:42.654Z,-0.90
2019-02-05T18:35:13.872Z,-1.00
2019-02-05T18:37:45.066Z,-1.00
2019-02-05T18:40:24.111Z,-1.60
2019-02-05T18:42:55.381Z,-1.00
2019-02-05T18:45:26.558Z,-1.10
2019-02-05T18:47:57.842Z,-1.10
2019-02-05T18:50:29.843Z,-1.20
2019-02-05T18:53:02.115Z,-1.40
2019-02-05T18:55:38.848Z,-1.40
2019-02-05T18:58:10.140Z,-1.40
2019-02-05T19:00:46.913Z,-1.50
2019-02-05T19:03:20.536Z,-1.50
2019-02-05T19:05:51.727Z,-1.50
2019-02-05T19:08:23.114Z,-1.50
2019-02-05T19:10:54.324Z,-1.50
2019-02-05T19:13:26.528Z,-1.50
2019-02-05T19:15:59.222Z,-1.50
2019-02-05T19:18:30.521Z,-1.40
2019-02-05T19:21:01.741Z,-1.40
2019-02-05T19:23:33.021Z,-1.40
2019-02-05T19:26:08.660Z,-1.40
2019-02-05T19:28:38.797Z,-1.40
2019-02-05T19:31:19.421Z,-1.30
2019-02-05T19:33:52.112Z,-1.20
2019-02-05T19:36:23.417Z,-1.20
2019-02-05T19:38:56.093Z,-1.10
2019-02-05T19:41:29.085Z,-1.10
2019-02-05T19:44:01.781Z,-1.00
2019-02-05T19:46:40.474Z,-0.90
2019-02-05T19:49:21.433Z,-0.90
2019-02-05T19:51:46.152Z,-0.80
2019-02-05T19:54:17.602Z,-0.70
2019-02-05T19:56:48.832Z,-0.70
2019-02-05T19:59:20.553Z,-0.70
2019-02-05T20:01:52.187Z,-0.70
2019-02-05T20:04:23.599Z,-0.60
2019-02-05T20:06:54.974Z,-0.60
2019-02-05T20:09:26.312Z,-0.50
2019-02-05T20:11:57.504Z,-0.50
2019-02-05T20:14:30.796Z,-0.50
2019-02-05T20:17:03.471Z,-0.50
2019-02-05T20:19:34.762Z,-0.50
2019-02-05T20:22:05.951Z,-0.40
2019-02-05T20:24:37.201Z,-0.40
2019-02-05T20:27:08.559Z,-0.40
2019-02-05T20:29:43.722Z,-0.50
2019-02-05T20:32:14.820Z,-0.60
2019-02-05T20:34:47.561Z,-0.60
2019-02-05T20:37:18.802Z,-0.60
2019-02-05T20:39:50.061Z,-0.50
2019-02-05T20:42:21.251Z,-0.50
2019-02-05T20:44:52.831Z,-0.50
2019-02-05T20:47:26.727Z,-0.50
2019-02-05T20:49:59.434Z,-0.40
2019-02-05T20:52:30.638Z,-0.40
2019-02-05T20:55:01.914Z,-0.40
2019-02-05T20:57:34.986Z,-0.40
2019-02-05T21:00:12.383Z,-0.50
2019-02-05T21:02:45.054Z,-0.50
2019-02-05T21:05:19.312Z,-0.50
2019-02-05T21:07:55.848Z,-0.40
2019-02-05T21:10:36.624Z,-0.40
2019-02-05T21:13:09.841Z,-0.50
2019-02-05T21:15:41.098Z,-0.40
2019-02-05T21:18:12.234Z,-0.40
2019-02-05T21:20:43.847Z,-0.30
2019-02-05T21:23:16.591Z,-0.30
2019-02-05T21:29:00.449Z,-0.30
2019-02-05T21:31:31.695Z,-0.30
2019-02-05T21:34:14.937Z,-0.30
2019-02-05T21:36:35.681Z,-0.30
2019-02-05T21:39:09.968Z,-0.30
2019-02-05T21:41:41.316Z,-0.20
2019-02-05T21:44:13.389Z,-0.20
2019-02-05T21:46:44.536Z,-0.30
2019-02-05T21:49:15.747Z,-0.20
2019-02-05T21:51:49.073Z,-0.20
2019-02-05T21:54:20.273Z,-0.10
2019-02-05T21:56:51.412Z,-0.20
2019-02-05T21:59:22.666Z,0.00
2019-02-05T22:01:54.135Z,0.00
2019-02-05T22:04:27.508Z,0.00
2019-02-05T22:07:00.668Z,0.00
2019-02-05T22:09:31.965Z,-0.10
2019-02-05T22:12:03.094Z,-0.10
2019-02-05T22:14:36.053Z,-0.10
2019-02-05T22:17:07.553Z,-0.10
2019-02-05T22:19:39.177Z,-0.10
2019-02-05T22:22:10.353Z,-0.10
2019-02-05T22:28:13.290Z,-0.10
2019-02-05T22:30:44.719Z,-0.10
2019-02-05T22:33:17.443Z,0.00
2019-02-05T22:35:48.614Z,0.00
2019-02-05T22:38:19.901Z,0.00
2019-02-05T22:40:51.793Z,-0.10
2019-02-05T22:43:29.671Z,0.10
2019-02-05T22:46:00.943Z,0.00
2019-02-05T22:48:32.661Z,0.10
2019-02-05T22:51:03.850Z,0.10
2019-02-05T22:53:36.361Z,0.10
2019-02-05T22:56:07.503Z,0.00
2019-02-05T22:58:44.583Z,0.10
2019-02-05T23:01:33.804Z,0.10
2019-02-05T23:04:08.732Z,0.10
2019-02-05T23:06:43.431Z,0.10
2019-02-05T23:09:21.041Z,0.10
2019-02-05T23:12:10.561Z,0.10
2019-02-05T23:14:41.833Z,0.10
2019-02-05T23:17:13.061Z,0.10
2019-02-05T23:19:44.261Z,0.10
2019-02-05T23:22:15.461Z,0.10
2019-02-05T23:24:48.139Z,0.10
2019-02-05T23:27:19.280Z,0.20
2019-02-05T23:29:50.475Z,0.10
2019-02-05T23:32:21.454Z,0.20
2019-02-05T23:35:10.932Z,0.20
2019-02-05T23:37:42.019Z,0.20
2019-02-05T23:40:13.694Z,0.30
2019-02-05T23:42:44.893Z,0.20
2019-02-05T23:45:16.136Z,0.20
2019-02-05T23:47:47.342Z,0.20
2019-02-05T23:50:18.601Z,0.30
2019-02-05T23:52:50.134Z,0.30
2019-02-05T23:55:21.308Z,0.30
2019-02-05T23:57:58.185Z,0.20
